createdAt,value
2022-09-09T00:00:34.957Z,3.52
2022-09-09T00:01:10.156Z,4.16
2022-09-09T00:01:45.385Z,1.68
2022-09-09T00:02:20.799Z,2.40
2022-09-09T00:02:56.314Z,3.68
2022-09-09T00:03:31.344Z,3.92
2022-09-09T00:04:06.751Z,4.88
2022-09-09T00:04:41.872Z,4.00
2022-09-09T00:05:17.485Z,4.00
2022-09-09T00:05:52.761Z,3.60
2022-09-09T00:06:28.059Z,4.08
2022-09-09T00:07:03.315Z,2.96
2022-09-09T00:07:38.597Z,2.48
2022-09-09T00:08:14.004Z,1.52
2022-09-09T00:08:49.315Z,1.76
2022-09-09T00:09:24.648Z,1.92
2022-09-09T00:09:59.744Z,2.24
2022-09-09T00:10:35.132Z,2.56
2022-09-09T00:11:10.544Z,3.28
2022-09-09T00:11:45.752Z,2.80
2022-09-09T00:12:21.465Z,2.56
2022-09-09T00:12:56.615Z,3.52
2022-09-09T00:13:31.509Z,3.20
2022-09-09T00:14:06.637Z,4.16
2022-09-09T00:14:41.827Z,5.60
2022-09-09T00:15:17.365Z,2.64
2022-09-09T00:15:53.053Z,3.84
2022-09-09T00:16:28.547Z,3.60
2022-09-09T00:17:04.096Z,2.88
2022-09-09T00:17:39.202Z,3.68
2022-09-09T00:18:14.733Z,1.84
2022-09-09T00:18:50.148Z,0.00
2022-09-09T00:19:25.353Z,1.28
2022-09-09T00:20:00.569Z,1.28
2022-09-09T00:20:35.676Z,2.40
2022-09-09T00:21:11.177Z,2.72
2022-09-09T00:21:46.287Z,0.72
2022-09-09T00:22:21.515Z,2.40
2022-09-09T00:22:56.820Z,2.00
2022-09-09T00:23:31.915Z,2.40
2022-09-09T00:24:07.049Z,2.00
2022-09-09T00:24:42.224Z,4.00
2022-09-09T00:25:17.533Z,3.60
2022-09-09T00:25:52.681Z,2.96
2022-09-09T00:26:27.618Z,3.52
2022-09-09T00:27:02.762Z,4.40
2022-09-09T00:27:37.871Z,3.12
2022-09-09T00:28:13.021Z,3.76
2022-09-09T00:28:48.132Z,2.96
2022-09-09T00:29:23.428Z,4.08
2022-09-09T00:29:59.967Z,4.00
2022-09-09T00:30:35.320Z,5.04
2022-09-09T00:31:10.627Z,3.68
2022-09-09T00:31:46.026Z,2.80
2022-09-09T00:32:21.279Z,3.92
2022-09-09T00:32:56.629Z,2.40
2022-09-09T00:33:31.821Z,2.96
2022-09-09T00:34:07.178Z,2.56
2022-09-09T00:34:42.473Z,4.08
2022-09-09T00:35:17.800Z,3.36
2022-09-09T00:35:53.188Z,2.56
2022-09-09T00:36:28.520Z,2.16
2022-09-09T00:37:03.667Z,2.72
2022-09-09T00:37:38.981Z,3.84
2022-09-09T00:38:14.520Z,4.48
2022-09-09T00:38:49.723Z,3.44
2022-09-09T00:39:25.033Z,4.08
2022-09-09T00:40:00.588Z,3.44
2022-09-09T00:40:35.780Z,4.48
2022-09-09T00:41:11.131Z,2.56
2022-09-09T00:41:46.444Z,4.24
2022-09-09T00:42:21.849Z,2.96
2022-09-09T00:42:57.372Z,2.88
2022-09-09T00:43:32.971Z,3.28
2022-09-09T00:44:08.194Z,3.36
2022-09-09T00:44:43.578Z,3.28
2022-09-09T00:45:18.681Z,3.28
2022-09-09T00:45:53.985Z,4.16
2022-09-09T00:46:29.164Z,2.96
2022-09-09T00:47:04.379Z,2.88
2022-09-09T00:47:39.729Z,3.12
2022-09-09T00:48:15.053Z,4.08
2022-09-09T00:48:50.409Z,2.48
2022-09-09T00:49:25.806Z,3.60
2022-09-09T00:50:01.506Z,2.64
2022-09-09T00:50:36.745Z,2.48
2022-09-09T00:51:12.559Z,2.08
2022-09-09T00:51:47.889Z,2.24
2022-09-09T00:52:23.113Z,3.44
2022-09-09T00:52:58.562Z,2.88
2022-09-09T00:53:33.865Z,2.08
2022-09-09T00:54:09.478Z,1.76
2022-09-09T00:54:44.689Z,3.12
2022-09-09T00:55:20.000Z,4.00
2022-09-09T00:55:55.350Z,4.00
2022-09-09T00:56:30.662Z,4.00
2022-09-09T00:57:06.507Z,3.52
2022-09-09T00:57:41.823Z,3.20
2022-09-09T00:58:17.036Z,2.08
2022-09-09T00:58:52.383Z,3.68
2022-09-09T00:59:28.577Z,2.96
2022-09-09T01:00:02.888Z,3.60
2022-09-09T01:00:38.195Z,3.44
2022-09-09T01:01:13.483Z,2.48
2022-09-09T01:01:48.731Z,3.28
2022-09-09T01:02:23.998Z,2.88
2022-09-09T01:02:59.641Z,4.08
2022-09-09T01:03:35.015Z,4.00
2022-09-09T01:04:10.089Z,3.28
2022-09-09T01:04:45.633Z,4.24
2022-09-09T01:05:21.137Z,2.16
2022-09-09T01:05:56.396Z,3.20
2022-09-09T01:06:31.626Z,2.08
2022-09-09T01:07:06.964Z,2.88
2022-09-09T01:07:42.296Z,3.04
2022-09-09T01:08:17.833Z,4.24
2022-09-09T01:08:52.940Z,3.12
2022-09-09T01:09:28.065Z,2.00
2022-09-09T01:10:03.607Z,1.60
2022-09-09T01:10:38.706Z,2.08
2022-09-09T01:11:14.037Z,1.84
2022-09-09T01:11:49.263Z,2.88
2022-09-09T01:12:24.426Z,1.60
2022-09-09T01:12:59.595Z,1.92
2022-09-09T01:13:34.945Z,4.00
2022-09-09T01:14:10.284Z,3.52
2022-09-09T01:14:45.530Z,4.08
2022-09-09T01:15:21.247Z,2.72
2022-09-09T01:15:59.813Z,2.88
2022-09-09T01:16:31.842Z,2.48
2022-09-09T01:17:07.085Z,3.68
2022-09-09T01:17:42.501Z,2.64
2022-09-09T01:18:17.896Z,2.00
2022-09-09T01:18:53.098Z,1.52
2022-09-09T01:19:28.020Z,4.00
2022-09-09T01:20:03.354Z,3.44
2022-09-09T01:20:38.508Z,4.24
2022-09-09T01:21:13.538Z,3.68
2022-09-09T01:21:48.751Z,2.48
2022-09-09T01:22:23.679Z,2.08
2022-09-09T01:22:58.914Z,2.96
2022-09-09T01:23:34.061Z,1.76
2022-09-09T01:24:09.726Z,2.24
2022-09-09T01:24:44.671Z,2.00
2022-09-09T01:25:19.985Z,3.28
2022-09-09T01:25:55.621Z,5.12
2022-09-09T01:26:30.843Z,3.92
2022-09-09T01:27:06.173Z,3.68
2022-09-09T01:27:41.788Z,2.64
2022-09-09T01:28:17.064Z,2.32
2022-09-09T01:28:52.298Z,2.96
2022-09-09T01:29:27.400Z,4.64
2022-09-09T01:30:02.825Z,4.16
2022-09-09T01:30:37.972Z,3.52
2022-09-09T01:31:13.181Z,2.24
2022-09-09T01:31:48.485Z,4.24
2022-09-09T01:32:24.227Z,2.56
2022-09-09T01:33:06.481Z,2.88
2022-09-09T01:33:42.305Z,5.52
2022-09-09T01:34:17.455Z,3.60
2022-09-09T01:34:53.144Z,4.64
2022-09-09T01:35:28.497Z,4.64
2022-09-09T01:36:03.609Z,2.24
2022-09-09T01:36:38.732Z,2.96
2022-09-09T01:37:13.963Z,5.76
2022-09-09T01:37:49.254Z,2.24
2022-09-09T01:38:24.385Z,5.84
2022-09-09T01:38:59.381Z,4.64
2022-09-09T01:39:34.652Z,2.80
2022-09-09T01:40:09.959Z,3.84
2022-09-09T01:40:44.933Z,3.44
2022-09-09T01:41:20.059Z,5.76
2022-09-09T01:41:55.177Z,4.00
2022-09-09T01:42:30.402Z,5.68
2022-09-09T01:43:05.848Z,3.92
2022-09-09T01:43:41.065Z,2.88
2022-09-09T01:44:16.717Z,3.76
2022-09-09T01:44:52.273Z,6.56
2022-09-09T01:45:27.732Z,4.72
2022-09-09T01:46:03.235Z,5.12
2022-09-09T01:46:38.406Z,3.44
2022-09-09T01:47:13.462Z,5.36
2022-09-09T01:47:49.328Z,4.96
2022-09-09T01:48:24.660Z,7.92
2022-09-09T01:48:59.807Z,4.64
2022-09-09T01:49:35.332Z,4.00
2022-09-09T01:50:10.267Z,5.28
2022-09-09T01:50:45.466Z,5.92
2022-09-09T01:51:21.047Z,5.68
2022-09-09T01:51:56.453Z,3.68
2022-09-09T01:52:31.600Z,2.72
2022-09-09T01:53:06.820Z,4.40
2022-09-09T01:53:42.709Z,3.68
2022-09-09T01:54:17.725Z,6.48
2022-09-09T01:54:53.144Z,6.00
2022-09-09T01:55:28.451Z,4.24
2022-09-09T01:56:03.755Z,4.32
2022-09-09T01:56:38.889Z,6.88
2022-09-09T01:57:14.421Z,3.44
2022-09-09T01:57:49.815Z,3.52
2022-09-09T01:58:25.398Z,2.96
2022-09-09T01:59:00.902Z,2.72
2022-09-09T01:59:36.220Z,4.40
2022-09-09T02:00:11.639Z,4.48
2022-09-09T02:00:46.917Z,3.84
2022-09-09T02:01:22.313Z,3.52
2022-09-09T02:01:57.489Z,3.68
2022-09-09T02:02:32.708Z,5.44
2022-09-09T02:03:07.895Z,3.84
2022-09-09T02:03:43.116Z,5.44
2022-09-09T02:04:18.384Z,3.92
2022-09-09T02:04:53.566Z,2.64
2022-09-09T02:05:28.783Z,4.32
2022-09-09T02:06:04.192Z,5.52
2022-09-09T02:06:39.396Z,4.64
2022-09-09T02:07:15.013Z,5.36
2022-09-09T02:07:50.195Z,4.16
2022-09-09T02:08:25.808Z,3.20
2022-09-09T02:09:01.021Z,3.68
2022-09-09T02:09:36.424Z,4.48
2022-09-09T02:10:11.899Z,4.56
2022-09-09T02:10:47.317Z,5.04
2022-09-09T02:11:22.416Z,4.72
2022-09-09T02:11:57.668Z,3.68
2022-09-09T02:12:32.981Z,2.80
2022-09-09T02:13:08.532Z,4.72
2022-09-09T02:13:43.883Z,4.32
2022-09-09T02:14:19.184Z,4.56
2022-09-09T02:14:54.549Z,4.56
2022-09-09T02:15:29.777Z,2.64
2022-09-09T02:16:04.885Z,2.56
2022-09-09T02:16:40.156Z,4.96
2022-09-09T02:17:15.355Z,2.24
2022-09-09T02:17:50.605Z,3.12
2022-09-09T02:18:25.716Z,2.88
2022-09-09T02:19:01.511Z,2.24
2022-09-09T02:19:36.759Z,4.08
2022-09-09T02:20:11.942Z,5.12
2022-09-09T02:20:47.145Z,3.84
2022-09-09T02:21:22.441Z,3.84
2022-09-09T02:21:57.784Z,4.24
2022-09-09T02:22:33.302Z,4.48
2022-09-09T02:23:08.639Z,3.92
2022-09-09T02:23:43.704Z,3.28
2022-09-09T02:24:19.015Z,4.56
2022-09-09T02:24:54.444Z,4.48
2022-09-09T02:25:29.768Z,4.64
2022-09-09T02:26:04.978Z,3.12
2022-09-09T02:26:40.310Z,4.48
2022-09-09T02:27:15.471Z,4.72
2022-09-09T02:27:50.817Z,3.76
2022-09-09T02:28:25.834Z,4.08
2022-09-09T02:29:00.934Z,6.32
2022-09-09T02:29:36.051Z,3.12
2022-09-09T02:30:11.227Z,3.28
2022-09-09T02:30:46.626Z,2.16
2022-09-09T02:31:22.004Z,7.44
2022-09-09T02:31:57.323Z,4.16
2022-09-09T02:32:32.925Z,3.84
2022-09-09T02:33:07.922Z,4.16
2022-09-09T02:33:43.034Z,4.64
2022-09-09T02:34:18.452Z,2.32
2022-09-09T02:34:54.073Z,4.08
2022-09-09T02:35:29.400Z,5.28
2022-09-09T02:36:04.611Z,3.52
2022-09-09T02:36:39.831Z,3.36
2022-09-09T02:37:15.246Z,2.16
2022-09-09T02:37:50.560Z,3.20
2022-09-09T02:38:26.275Z,3.04
2022-09-09T02:39:01.877Z,2.56
2022-09-09T02:39:37.135Z,3.92
2022-09-09T02:40:12.347Z,3.12
2022-09-09T02:40:47.513Z,4.40
2022-09-09T02:41:22.851Z,5.92
2022-09-09T02:41:58.286Z,3.76
2022-09-09T02:42:33.694Z,1.44
2022-09-09T02:43:08.767Z,1.36
2022-09-09T02:43:44.013Z,3.76
2022-09-09T02:44:19.615Z,0.96
2022-09-09T02:44:54.772Z,0.48
2022-09-09T02:45:30.154Z,2.72
2022-09-09T02:46:05.403Z,2.56
2022-09-09T02:46:40.605Z,2.56
2022-09-09T02:47:16.021Z,2.72
2022-09-09T02:47:51.238Z,2.40
2022-09-09T02:48:26.429Z,3.84
2022-09-09T02:49:01.657Z,3.76
2022-09-09T02:49:36.829Z,0.64
2022-09-09T02:50:12.076Z,2.24
2022-09-09T02:50:47.394Z,3.28
2022-09-09T02:51:22.634Z,2.16
2022-09-09T02:51:57.639Z,2.48
2022-09-09T02:52:33.055Z,4.48
2022-09-09T02:53:08.057Z,3.76
2022-09-09T02:53:43.091Z,3.36
2022-09-09T02:54:18.294Z,3.28
2022-09-09T02:54:53.612Z,2.56
2022-09-09T02:55:28.834Z,2.72
2022-09-09T02:56:04.145Z,3.12
2022-09-09T02:56:39.363Z,5.52
2022-09-09T02:57:14.480Z,3.52
2022-09-09T02:57:49.758Z,1.44
2022-09-09T02:58:25.160Z,2.88
2022-09-09T02:59:00.280Z,2.64
2022-09-09T02:59:35.569Z,3.12
2022-09-09T03:00:11.072Z,3.92
2022-09-09T03:00:46.231Z,4.56
2022-09-09T03:01:21.458Z,4.16
2022-09-09T03:01:56.625Z,5.28
2022-09-09T03:02:31.926Z,6.16
2022-09-09T03:03:06.910Z,3.84
2022-09-09T03:03:42.532Z,3.60
2022-09-09T03:04:18.023Z,4.64
2022-09-09T03:04:53.557Z,3.52
2022-09-09T03:05:28.654Z,4.08
2022-09-09T03:06:03.708Z,5.28
2022-09-09T03:06:38.723Z,2.56
2022-09-09T03:07:14.020Z,4.24
2022-09-09T03:07:49.414Z,3.60
2022-09-09T03:08:25.003Z,3.52
2022-09-09T03:09:00.314Z,3.60
2022-09-09T03:09:35.613Z,5.44
2022-09-09T03:10:10.956Z,5.28
2022-09-09T03:10:46.165Z,2.40
2022-09-09T03:11:21.263Z,3.84
2022-09-09T03:11:56.662Z,4.32
2022-09-09T03:12:31.641Z,3.04
2022-09-09T03:13:06.989Z,5.04
2022-09-09T03:13:42.448Z,4.72
2022-09-09T03:14:17.707Z,3.28
2022-09-09T03:14:53.222Z,3.44
2022-09-09T03:15:28.522Z,3.92
2022-09-09T03:16:03.847Z,3.28
2022-09-09T03:16:39.369Z,3.20
2022-09-09T03:17:14.485Z,4.56
2022-09-09T03:17:49.988Z,3.28
2022-09-09T03:18:25.291Z,3.76
2022-09-09T03:19:00.710Z,4.72
2022-09-09T03:19:35.914Z,3.52
2022-09-09T03:20:11.231Z,2.88
2022-09-09T03:20:46.438Z,4.32
2022-09-09T03:21:21.839Z,6.48
2022-09-09T03:21:57.386Z,4.16
2022-09-09T03:22:32.648Z,3.76
2022-09-09T03:23:09.545Z,4.24
2022-09-09T03:23:43.497Z,4.00
2022-09-09T03:24:19.043Z,2.96
2022-09-09T03:24:54.245Z,4.40
2022-09-09T03:25:29.550Z,4.24
2022-09-09T03:26:04.770Z,2.56
2022-09-09T03:26:40.088Z,4.88
2022-09-09T03:27:15.441Z,1.84
2022-09-09T03:27:50.554Z,2.24
2022-09-09T03:28:25.994Z,3.44
2022-09-09T03:29:01.479Z,3.68
2022-09-09T03:29:37.020Z,3.68
2022-09-09T03:30:12.236Z,2.08
2022-09-09T03:30:47.857Z,2.64
2022-09-09T03:31:23.064Z,1.28
2022-09-09T03:31:58.627Z,1.52
2022-09-09T03:32:33.880Z,3.84
2022-09-09T03:33:09.196Z,2.56
2022-09-09T03:33:44.497Z,2.16
2022-09-09T03:34:19.696Z,2.56
2022-09-09T03:34:54.997Z,1.92
2022-09-09T03:35:30.154Z,1.92
2022-09-09T03:36:05.247Z,2.96
2022-09-09T03:36:40.362Z,2.56
2022-09-09T03:37:15.380Z,4.32
2022-09-09T03:37:50.587Z,4.48
2022-09-09T03:38:25.590Z,5.92
2022-09-09T03:39:00.895Z,4.16
2022-09-09T03:39:36.143Z,4.56
2022-09-09T03:40:11.607Z,5.12
2022-09-09T03:40:46.806Z,3.28
2022-09-09T03:41:22.031Z,5.20
2022-09-09T03:41:57.429Z,2.64
2022-09-09T03:42:32.740Z,4.88
2022-09-09T03:43:08.059Z,3.84
2022-09-09T03:43:43.670Z,2.56
2022-09-09T03:44:18.904Z,3.68
2022-09-09T03:44:54.142Z,5.44
2022-09-09T03:45:29.589Z,4.32
2022-09-09T03:46:04.926Z,4.00
2022-09-09T03:46:40.004Z,6.56
2022-09-09T03:47:15.361Z,5.84
2022-09-09T03:47:50.471Z,3.60
2022-09-09T03:48:25.597Z,3.28
2022-09-09T03:49:01.215Z,4.80
2022-09-09T03:49:36.157Z,3.60
2022-09-09T03:50:11.060Z,6.64
2022-09-09T03:50:46.370Z,4.40
2022-09-09T03:51:21.713Z,3.68
2022-09-09T03:51:57.084Z,2.64
2022-09-09T03:52:32.223Z,2.40
2022-09-09T03:53:07.327Z,3.76
2022-09-09T03:53:42.657Z,1.92
2022-09-09T03:54:17.853Z,5.12
2022-09-09T03:54:52.879Z,3.12
2022-09-09T03:55:27.968Z,4.88
2022-09-09T03:56:03.495Z,5.28
2022-09-09T03:56:38.909Z,3.60
2022-09-09T03:57:14.012Z,5.12
2022-09-09T03:57:49.249Z,4.72
2022-09-09T03:58:24.561Z,2.24
2022-09-09T03:58:59.787Z,2.72
2022-09-09T03:59:34.776Z,2.48
2022-09-09T04:00:10.208Z,2.56
2022-09-09T04:00:45.628Z,3.68
2022-09-09T04:01:21.220Z,3.20
2022-09-09T04:01:56.527Z,2.00
2022-09-09T04:02:31.970Z,1.36
2022-09-09T04:03:07.156Z,2.48
2022-09-09T04:03:42.571Z,5.20
2022-09-09T04:04:17.793Z,4.80
2022-09-09T04:04:52.887Z,3.36
2022-09-09T04:05:28.202Z,2.24
2022-09-09T04:06:03.621Z,2.64
2022-09-09T04:06:38.939Z,1.92
2022-09-09T04:07:14.156Z,2.56
2022-09-09T04:07:49.777Z,4.64
2022-09-09T04:08:24.781Z,6.16
2022-09-09T04:08:59.996Z,5.28
2022-09-09T04:09:35.012Z,3.36
2022-09-09T04:10:10.160Z,3.44
2022-09-09T04:10:45.452Z,6.00
2022-09-09T04:11:21.018Z,8.48
2022-09-09T04:11:56.230Z,4.16
2022-09-09T04:12:31.417Z,2.56
2022-09-09T04:13:06.619Z,3.20
2022-09-09T04:13:41.621Z,3.04
2022-09-09T04:14:17.035Z,2.08
2022-09-09T04:14:52.120Z,2.00
2022-09-09T04:15:27.277Z,5.12
2022-09-09T04:16:02.290Z,4.08
2022-09-09T04:16:38.002Z,2.32
2022-09-09T04:17:13.231Z,3.52
2022-09-09T04:17:48.250Z,3.60
2022-09-09T04:18:23.556Z,2.48
2022-09-09T04:18:59.116Z,4.16
2022-09-09T04:19:34.655Z,1.68
2022-09-09T04:20:10.066Z,3.92
2022-09-09T04:20:45.489Z,4.40
2022-09-09T04:21:20.947Z,6.64
2022-09-09T04:21:56.258Z,4.00
2022-09-09T04:22:31.723Z,5.20
2022-09-09T04:23:07.303Z,6.24
2022-09-09T04:23:42.719Z,5.60
2022-09-09T04:24:17.942Z,5.12
2022-09-09T04:24:53.315Z,3.52
2022-09-09T04:25:28.596Z,5.28
2022-09-09T04:26:03.947Z,2.96
2022-09-09T04:26:39.269Z,2.88
2022-09-09T04:27:14.767Z,3.60
2022-09-09T04:27:50.275Z,1.60
2022-09-09T04:28:25.489Z,5.12
2022-09-09T04:29:00.677Z,3.68
2022-09-09T04:29:35.903Z,4.00
2022-09-09T04:30:11.152Z,6.00
2022-09-09T04:30:46.154Z,6.00
2022-09-09T04:31:21.862Z,2.40
2022-09-09T04:31:57.374Z,4.72
2022-09-09T04:32:32.392Z,5.12
2022-09-09T04:33:07.497Z,3.44
2022-09-09T04:33:42.706Z,6.64
2022-09-09T04:34:18.880Z,4.00
2022-09-09T04:34:54.122Z,3.36
2022-09-09T04:35:29.354Z,3.44
2022-09-09T04:36:04.546Z,2.64
2022-09-09T04:36:39.919Z,5.04
2022-09-09T04:37:15.151Z,4.64
2022-09-09T04:37:50.488Z,4.08
2022-09-09T04:38:25.611Z,8.08
2022-09-09T04:39:00.934Z,4.80
2022-09-09T04:39:36.457Z,2.40
2022-09-09T04:40:11.886Z,4.72
2022-09-09T04:40:46.852Z,4.88
2022-09-09T04:41:22.117Z,4.72
2022-09-09T04:41:57.544Z,4.88
2022-09-09T04:42:32.852Z,4.16
2022-09-09T04:43:10.479Z,6.32
2022-09-09T04:43:43.557Z,5.04
2022-09-09T04:44:19.003Z,5.44
2022-09-09T04:44:54.290Z,9.36
2022-09-09T04:45:29.672Z,5.92
2022-09-09T04:46:04.729Z,2.72
2022-09-09T04:46:40.177Z,2.80
2022-09-09T04:47:15.606Z,5.36
2022-09-09T04:47:50.726Z,2.08
2022-09-09T04:48:26.265Z,5.60
2022-09-09T04:49:01.454Z,4.80
2022-09-09T04:49:36.952Z,6.40
2022-09-09T04:50:12.459Z,3.84
2022-09-09T04:50:47.768Z,2.48
2022-09-09T04:51:22.909Z,4.40
2022-09-09T04:51:58.139Z,4.24
2022-09-09T04:52:33.815Z,6.24
2022-09-09T04:53:09.051Z,5.28
2022-09-09T04:53:44.681Z,5.20
2022-09-09T04:54:19.846Z,7.36
2022-09-09T04:54:55.247Z,5.68
2022-09-09T04:55:30.273Z,8.00
2022-09-09T04:56:05.360Z,9.12
2022-09-09T04:56:40.983Z,9.68
2022-09-09T04:57:18.788Z,6.64
2022-09-09T04:57:51.974Z,8.00
2022-09-09T04:58:27.327Z,4.80
2022-09-09T04:59:02.556Z,4.56
2022-09-09T04:59:37.693Z,8.00
2022-09-09T05:00:12.904Z,4.16
2022-09-09T05:00:48.554Z,4.48
2022-09-09T05:01:23.762Z,6.32
2022-09-09T05:01:58.867Z,5.20
2022-09-09T05:02:34.358Z,4.24
2022-09-09T05:03:09.670Z,2.88
2022-09-09T05:03:44.998Z,6.08
2022-09-09T05:04:20.549Z,5.76
2022-09-09T05:04:55.714Z,4.88
2022-09-09T05:05:31.273Z,5.84
2022-09-09T05:06:06.436Z,3.28
2022-09-09T05:06:41.655Z,6.08
2022-09-09T05:07:16.866Z,3.36
2022-09-09T05:07:52.097Z,7.60
2022-09-09T05:08:27.343Z,3.60
2022-09-09T05:09:02.658Z,5.84
2022-09-09T05:09:38.086Z,2.56
2022-09-09T05:10:13.574Z,6.16
2022-09-09T05:10:48.810Z,5.36
2022-09-09T05:11:23.732Z,5.12
2022-09-09T05:11:59.161Z,4.24
2022-09-09T05:12:34.490Z,5.12
2022-09-09T05:13:09.604Z,4.32
2022-09-09T05:13:44.866Z,4.32
2022-09-09T05:14:20.000Z,4.80
2022-09-09T05:14:55.430Z,5.36
2022-09-09T05:15:30.491Z,4.08
2022-09-09T05:16:05.892Z,2.56
2022-09-09T05:16:41.406Z,2.56
2022-09-09T05:17:16.777Z,4.88
2022-09-09T05:17:52.000Z,4.40
2022-09-09T05:18:27.461Z,4.80
2022-09-09T05:19:02.650Z,4.64
2022-09-09T05:19:37.985Z,4.64
2022-09-09T05:20:17.165Z,5.44
2022-09-09T05:20:49.118Z,3.76
2022-09-09T05:21:24.409Z,6.72
2022-09-09T05:21:59.538Z,5.04
2022-09-09T05:22:34.781Z,3.92
2022-09-09T05:23:09.871Z,3.04
2022-09-09T05:23:45.262Z,3.60
2022-09-09T05:24:20.752Z,4.88
2022-09-09T05:24:55.757Z,4.96
2022-09-09T05:25:31.072Z,5.04
2022-09-09T05:26:06.316Z,4.00
2022-09-09T05:26:41.437Z,4.32
2022-09-09T05:27:16.759Z,3.68
2022-09-09T05:27:52.390Z,6.80
2022-09-09T05:28:27.835Z,2.56
2022-09-09T05:29:03.333Z,3.60
2022-09-09T05:29:38.469Z,4.80
2022-09-09T05:30:13.568Z,6.64
2022-09-09T05:30:49.103Z,7.60
2022-09-09T05:31:26.669Z,7.44
2022-09-09T05:31:59.624Z,2.40
2022-09-09T05:32:34.783Z,2.56
2022-09-09T05:33:09.891Z,3.04
2022-09-09T05:33:45.431Z,3.12
2022-09-09T05:34:20.443Z,5.68
2022-09-09T05:34:56.193Z,5.52
2022-09-09T05:35:31.835Z,3.12
2022-09-09T05:36:07.005Z,4.00
2022-09-09T05:36:42.191Z,2.24
2022-09-09T05:37:17.526Z,5.28
2022-09-09T05:37:52.649Z,2.32
2022-09-09T05:38:28.856Z,1.84
2022-09-09T05:39:03.325Z,3.52
2022-09-09T05:39:38.445Z,5.76
2022-09-09T05:40:14.125Z,3.92
2022-09-09T05:40:49.305Z,8.00
2022-09-09T05:41:25.089Z,4.08
2022-09-09T05:42:00.516Z,2.80
2022-09-09T05:42:36.141Z,4.32
2022-09-09T05:43:11.469Z,4.32
2022-09-09T05:43:46.675Z,2.72
2022-09-09T05:44:21.779Z,2.32
2022-09-09T05:44:56.795Z,5.92
2022-09-09T05:45:32.161Z,8.24
2022-09-09T05:46:07.474Z,5.92
2022-09-09T05:46:42.762Z,2.80
2022-09-09T05:47:18.032Z,3.84
2022-09-09T05:47:53.618Z,3.84
2022-09-09T05:48:29.339Z,5.92
2022-09-09T05:49:04.458Z,5.04
2022-09-09T05:49:39.583Z,7.92
2022-09-09T05:50:14.880Z,2.24
2022-09-09T05:50:49.952Z,5.44
2022-09-09T05:51:25.301Z,8.16
2022-09-09T05:52:00.768Z,4.16
2022-09-09T05:52:36.184Z,4.64
2022-09-09T05:53:11.397Z,8.80
2022-09-09T05:53:47.603Z,8.64
2022-09-09T05:54:22.814Z,2.48
2022-09-09T05:54:57.941Z,1.92
2022-09-09T05:55:33.252Z,3.84
2022-09-09T05:56:08.685Z,5.76
2022-09-09T05:56:43.726Z,2.64
2022-09-09T05:57:19.049Z,2.16
2022-09-09T05:57:54.262Z,3.20
2022-09-09T05:58:29.568Z,4.56
2022-09-09T05:59:04.558Z,7.20
2022-09-09T05:59:39.752Z,6.56
2022-09-09T06:00:15.149Z,6.56
2022-09-09T06:00:50.784Z,7.44
2022-09-09T06:01:25.931Z,3.12
2022-09-09T06:02:01.522Z,3.04
2022-09-09T06:02:36.978Z,3.84
2022-09-09T06:03:12.105Z,5.12
2022-09-09T06:03:47.256Z,4.80
2022-09-09T06:04:22.757Z,5.04
2022-09-09T06:05:00.597Z,3.76
2022-09-09T06:05:33.914Z,4.08
2022-09-09T06:06:09.338Z,3.52
2022-09-09T06:06:44.746Z,3.44
2022-09-09T06:07:20.127Z,2.96
2022-09-09T06:07:55.497Z,1.60
2022-09-09T06:08:30.857Z,4.32
2022-09-09T06:09:06.329Z,3.76
2022-09-09T06:09:41.436Z,3.20
2022-09-09T06:10:16.570Z,1.84
2022-09-09T06:10:52.081Z,2.56
2022-09-09T06:11:27.450Z,3.60
2022-09-09T06:12:02.793Z,1.84
2022-09-09T06:12:37.982Z,4.16
2022-09-09T06:13:13.119Z,4.64
2022-09-09T06:13:48.250Z,4.16
2022-09-09T06:14:23.845Z,2.32
2022-09-09T06:14:59.244Z,1.92
2022-09-09T06:15:34.602Z,4.24
2022-09-09T06:16:09.495Z,2.16
2022-09-09T06:16:44.771Z,2.48
2022-09-09T06:17:19.926Z,4.64
2022-09-09T06:17:55.212Z,2.24
2022-09-09T06:18:30.420Z,4.08
2022-09-09T06:19:05.569Z,2.08
2022-09-09T06:19:41.177Z,0.56
2022-09-09T06:20:16.328Z,1.92
2022-09-09T06:20:51.805Z,1.04
2022-09-09T06:21:27.335Z,2.40
2022-09-09T06:22:02.655Z,3.20
2022-09-09T06:22:37.951Z,4.56
2022-09-09T06:23:13.109Z,4.16
2022-09-09T06:23:48.337Z,1.28
2022-09-09T06:24:23.876Z,3.04
2022-09-09T06:24:59.307Z,2.64
2022-09-09T06:25:34.819Z,6.32
2022-09-09T06:26:09.965Z,4.48
2022-09-09T06:26:45.071Z,8.00
2022-09-09T06:27:20.292Z,6.32
2022-09-09T06:27:55.394Z,3.60
2022-09-09T06:28:30.926Z,4.56
2022-09-09T06:29:06.267Z,7.20
2022-09-09T06:29:41.448Z,4.72
2022-09-09T06:30:16.883Z,7.92
2022-09-09T06:30:51.992Z,4.72
2022-09-09T06:31:29.823Z,3.76
2022-09-09T06:32:02.343Z,2.48
2022-09-09T06:32:37.786Z,4.72
2022-09-09T06:33:12.965Z,5.36
2022-09-09T06:33:48.115Z,5.68
2022-09-09T06:34:23.396Z,5.52
2022-09-09T06:34:58.634Z,7.44
2022-09-09T06:35:33.851Z,6.72
2022-09-09T06:36:09.271Z,5.12
2022-09-09T06:36:44.391Z,7.28
2022-09-09T06:37:20.069Z,8.96
2022-09-09T06:37:55.136Z,8.32
2022-09-09T06:38:30.386Z,6.56
2022-09-09T06:39:05.673Z,6.00
2022-09-09T06:39:40.911Z,4.72
2022-09-09T06:40:16.314Z,4.72
2022-09-09T06:40:51.483Z,2.48
2022-09-09T06:41:26.505Z,3.84
2022-09-09T06:42:02.240Z,5.60
2022-09-09T06:42:37.750Z,4.16
2022-09-09T06:43:12.886Z,6.32
2022-09-09T06:43:48.025Z,1.28
2022-09-09T06:44:23.188Z,3.92
2022-09-09T06:44:58.256Z,3.52
2022-09-09T06:45:33.574Z,0.96
2022-09-09T06:46:08.962Z,4.48
2022-09-09T06:46:44.178Z,2.80
2022-09-09T06:47:19.463Z,5.20
2022-09-09T06:47:54.581Z,6.48
2022-09-09T06:48:29.770Z,10.97
2022-09-09T06:49:04.883Z,9.52
2022-09-09T06:49:40.213Z,4.40
2022-09-09T06:50:15.631Z,5.76
2022-09-09T06:50:50.968Z,6.48
2022-09-09T06:51:26.183Z,3.28
2022-09-09T06:52:01.678Z,7.84
2022-09-09T06:52:36.931Z,6.64
2022-09-09T06:53:12.463Z,8.32
2022-09-09T06:53:47.869Z,8.08
2022-09-09T06:54:23.021Z,4.48
2022-09-09T06:54:58.130Z,8.00
2022-09-09T06:55:33.580Z,8.32
2022-09-09T06:56:08.882Z,6.80
2022-09-09T06:56:44.113Z,5.76
2022-09-09T06:57:36.426Z,6.24
2022-09-09T06:57:54.879Z,6.00
2022-09-09T06:58:30.301Z,4.48
2022-09-09T06:59:05.809Z,6.32
2022-09-09T06:59:41.094Z,4.80
2022-09-09T07:00:16.319Z,2.64
2022-09-09T07:00:51.819Z,6.40
2022-09-09T07:01:27.101Z,14.09
2022-09-09T07:02:02.430Z,11.21
2022-09-09T07:02:37.629Z,14.33
2022-09-09T07:03:12.862Z,7.28
2022-09-09T07:03:48.188Z,19.45
2022-09-09T07:04:23.330Z,17.93
2022-09-09T07:04:58.407Z,11.93
2022-09-09T07:05:33.741Z,7.44
2022-09-09T07:06:09.526Z,6.80
2022-09-09T07:06:44.750Z,9.92
2022-09-09T07:07:19.860Z,8.72
2022-09-09T07:07:55.278Z,6.08
2022-09-09T07:08:30.707Z,7.12
2022-09-09T07:09:05.899Z,5.60
2022-09-09T07:09:41.324Z,4.88
2022-09-09T07:10:16.639Z,6.96
2022-09-09T07:10:51.853Z,6.16
2022-09-09T07:11:27.357Z,8.16
2022-09-09T07:12:02.923Z,6.56
2022-09-09T07:12:38.094Z,9.12
2022-09-09T07:13:13.127Z,4.40
2022-09-09T07:13:48.444Z,12.49
2022-09-09T07:14:23.951Z,9.20
2022-09-09T07:14:59.265Z,9.52
2022-09-09T07:15:34.366Z,7.44
2022-09-09T07:16:09.967Z,6.32
2022-09-09T07:16:45.426Z,7.44
2022-09-09T07:17:21.046Z,3.44
2022-09-09T07:17:56.379Z,3.68
2022-09-09T07:18:31.577Z,5.52
2022-09-09T07:19:07.082Z,5.68
2022-09-09T07:19:42.284Z,6.48
2022-09-09T07:20:17.421Z,5.60
2022-09-09T07:20:52.775Z,14.33
2022-09-09T07:21:28.122Z,11.85
2022-09-09T07:22:03.339Z,5.12
2022-09-09T07:22:38.541Z,5.92
2022-09-09T07:23:13.915Z,10.08
2022-09-09T07:23:49.233Z,7.92
2022-09-09T07:24:24.342Z,7.12
2022-09-09T07:24:59.374Z,8.72
2022-09-09T07:25:34.977Z,9.28
2022-09-09T07:26:10.599Z,10.40
2022-09-09T07:26:46.120Z,8.72
2022-09-09T07:27:21.626Z,7.28
2022-09-09T07:27:57.046Z,7.12
2022-09-09T07:28:32.288Z,14.25
2022-09-09T07:29:08.007Z,5.20
2022-09-09T07:29:43.011Z,6.96
2022-09-09T07:30:22.031Z,4.24
2022-09-09T07:30:53.313Z,6.32
2022-09-09T07:31:28.708Z,7.20
2022-09-09T07:32:04.207Z,6.40
2022-09-09T07:32:39.315Z,7.76
2022-09-09T07:33:21.472Z,4.64
2022-09-09T07:33:56.649Z,4.40
2022-09-09T07:34:31.771Z,10.08
2022-09-09T07:35:07.179Z,4.00
2022-09-09T07:35:42.188Z,7.12
2022-09-09T07:36:17.319Z,5.44
2022-09-09T07:36:52.440Z,10.48
2022-09-09T07:37:27.555Z,7.44
2022-09-09T07:38:02.861Z,5.12
2022-09-09T07:38:38.066Z,6.16
2022-09-09T07:39:13.523Z,6.32
2022-09-09T07:39:48.879Z,5.52
2022-09-09T07:40:23.892Z,6.16
2022-09-09T07:40:59.403Z,9.04
2022-09-09T07:41:34.715Z,8.40
2022-09-09T07:42:09.821Z,5.76
2022-09-09T07:42:45.056Z,5.68
2022-09-09T07:43:20.213Z,7.68
2022-09-09T07:43:55.425Z,7.20
2022-09-09T07:44:30.873Z,10.00
2022-09-09T07:45:06.291Z,13.85
2022-09-09T07:45:41.409Z,10.48
2022-09-09T07:46:16.572Z,11.45
2022-09-09T07:46:52.286Z,7.68
2022-09-09T07:47:27.534Z,11.53
2022-09-09T07:48:02.904Z,12.73
2022-09-09T07:48:38.320Z,16.57
2022-09-09T07:49:13.434Z,10.32
2022-09-09T07:49:48.761Z,9.28